DABCDAUH

Guest
Details From DABC - MOHAMED BOUDIAF INTL
To DAUH - OUED IRARA
Flight Number -
Tags generated
Created
Modified
Stats Distance 280 nm / 519 km
Max Altitude 31,600 ft / 9,632 m
Waypoints 4
Social Downloads 5
Likes 0
Share VATSIM

Download

Looking for another format? Having issues loading an existing format? Contact us
Advertisement - Login to hide

Notes

Basic altitude profile: - Ascent Rate: 2500ft/min - Ascent Speed: 250kts - Cruise Altitude: 35000ft - Cruise Speed: 420kts - Descent Rate: 1500ft/min - Descent Speed: 250kts Options: - Use NATs: yes - Use PACOTS: yes - Use low airways: yes - Use high airways: yes

Route

DABC NADJI J12 TGU DAUH

ID Type Via Altitude Latitude Longitude Leg Dist Tot Dist Heading (true) Name
O DABC APT - 0 ft / 0 m 36.27604˚ 6.62028˚ - 0 nm - MOHAMED BOUDIAF INTL
NADJI FIX - 31,600 ft / 9,632 m 34.80000˚ 6.65000˚ 88 nm 88 nm 179° / 179° -
TGU VOR J12 (AWY-HI) 16,800 ft / 5,121 m 33.05694˚ 6.08861˚ 108 nm 197 nm 195° / 195° TOUGGOURT VOR-DME
O DAUH APT - 0 ft / 0 m 31.67290˚ 6.14046˚ 83 nm 280 nm 178° / 178° OUED IRARA

Altitude Profile

Advertisement - Login to hide

Weather


0- 5 10 15 20 25 30 35+ Temperature / ° C

Clouds and Precipitation
Forecast for 2017-12-18 06:00 UTC. Updated 2 hours ago

Ground ~20,000 ft ~40,000 ft Winds

DABC

Details ICAO DABC (CZL)
Name MOHAMED BOUDIAF INTL
Region Algeria
Timezone Africa/Algiers (UTC+1.0)
Stats Elevation 2,265 ft / 690 m (AMSL)
Location 36.276042° 6.620278°
Runways 2
Magnetic Variation 1.732° E

METAR

DABC 180500Z 33007KT 7000 -RA FEW013 SCT016TCU BKN023 03/02 Q1027

Decode

TAF

TAF DABC 172300Z 1800/1824 32009KT 7000 FEW013 SCT020TCU BKN033 TEMPO 1800/1811 3000 -RASN BKN010 BECMG 1809/1811 26011KT PROB40 TEMPO 1812/1819 5000 -RA

Decode

Departure Runways

ID Width Length Bearing (true) Bearing (mag) Surface Threshold Offset Overrun Length
14 148 ft / 45 m 7,886 ft / 2,404 m 136.03° 134.30° Asphalt 0 ft / 0 m 340 ft / 104 m
16 148 ft / 45 m 9,871 ft / 3,009 m 159.14° 157.41° Asphalt 0 ft / 0 m 400 ft / 122 m
32 148 ft / 45 m 7,886 ft / 2,404 m 316.04° 314.31° Asphalt 0 ft / 0 m 200 ft / 61 m
34 148 ft / 45 m 9,871 ft / 3,009 m 339.15° 337.42° Asphalt 0 ft / 0 m 400 ft / 122 m

DAUH

Details ICAO DAUH (HME)
Name OUED IRARA
Region Algeria
Timezone Africa/Algiers (UTC+1.0)
Stats Elevation 463 ft / 141 m (AMSL)
Location 31.672900° 6.140458°
Runways 1
Magnetic Variation 1.420° E

METAR

DAUH 180500Z 35007KT 9999 SCT030 09/04 Q1025

Decode

TAF

TAF TAF DAUH 172300Z 1800/1824 02012KT 9999 BKN030 PROB30 TEMPO 1812/1816 02015G25KT 5000 DRSA

Decode

Destination Runways

ID Width Length Bearing (true) Bearing (mag) Surface Threshold Offset Overrun Length
18 148 ft / 45 m 9,952 ft / 3,034 m 184.21° 182.79° Asphalt 0 ft / 0 m 328 ft / 100 m
36 148 ft / 45 m 9,952 ft / 3,034 m 4.20° 2.78° Asphalt 0 ft / 0 m 328 ft / 100 m

Popular Alternatives